createdAt,value
2023-05-05T00:00:23.023Z,94964.16
2023-05-05T00:02:49.632Z,94950.09
2023-05-05T00:05:17.976Z,94957.34
2023-05-05T00:07:44.601Z,94958.47
2023-05-05T00:10:11.212Z,94954.69
2023-05-05T00:12:37.852Z,94952.59
2023-05-05T00:15:05.317Z,94943.41
2023-05-05T00:17:31.942Z,94943.97
2023-05-05T00:19:59.642Z,94951.16
2023-05-05T00:22:27.675Z,94940.22
2023-05-05T00:24:54.273Z,94946.13
2023-05-05T00:27:20.836Z,94946.44
2023-05-05T00:29:47.430Z,94945.06
2023-05-05T00:32:14.071Z,94950.13
2023-05-05T00:34:40.624Z,94942.06
2023-05-05T00:37:07.416Z,94953.41
2023-05-05T00:39:35.438Z,94939.75
2023-05-05T00:42:02.035Z,94936.88
2023-05-05T00:44:36.908Z,94938.22
2023-05-05T00:47:04.095Z,94934.44
2023-05-05T00:49:31.409Z,94938.28
2023-05-05T00:51:58.455Z,94934.78
2023-05-05T00:54:25.415Z,94933.78
2023-05-05T00:56:53.612Z,94934.72
2023-05-05T00:59:20.774Z,94933.31
2023-05-05T01:04:25.725Z,94930.19
2023-05-05T01:06:57.792Z,94924.31
2023-05-05T01:09:34.305Z,94930.78
2023-05-05T01:12:14.514Z,94925.00
2023-05-05T01:14:45.105Z,94924.09
2023-05-05T01:17:17.093Z,94925.09
2023-05-05T01:19:56.971Z,94923.97
2023-05-05T01:22:28.725Z,94935.09
2023-05-05T01:25:12.341Z,94932.41
2023-05-05T01:27:59.859Z,94921.94
2023-05-05T01:30:39.036Z,94923.84
2023-05-05T01:33:11.049Z,94923.25
2023-05-05T01:35:41.857Z,94920.28
2023-05-05T01:38:15.162Z,94921.06
2023-05-05T01:40:47.045Z,94924.31
2023-05-05T01:43:15.855Z,94920.06
2023-05-05T01:45:44.953Z,94921.72
2023-05-05T01:48:16.881Z,94922.22
2023-05-05T01:50:44.117Z,94925.19
2023-05-05T01:53:11.986Z,94929.06
2023-05-05T01:55:40.566Z,94938.84
2023-05-05T01:58:08.147Z,94934.53
2023-05-05T02:00:35.262Z,94931.31
2023-05-05T02:03:04.859Z,94926.66
2023-05-05T02:05:34.057Z,94931.63
2023-05-05T02:08:02.515Z,94922.44
2023-05-05T02:10:30.123Z,94932.72
2023-05-05T02:12:58.965Z,94935.84
2023-05-05T02:15:27.858Z,94927.59
2023-05-05T02:17:55.337Z,94930.94
2023-05-05T02:20:24.067Z,94938.22
2023-05-05T02:22:52.001Z,94936.03
2023-05-05T02:25:18.559Z,94939.28
2023-05-05T02:27:47.716Z,94939.91
2023-05-05T02:30:18.241Z,94928.88
2023-05-05T02:32:49.491Z,94936.81
2023-05-05T02:35:20.069Z,94940.97
2023-05-05T02:37:50.741Z,94939.59
2023-05-05T02:40:22.869Z,94947.69
2023-05-05T02:42:54.261Z,94944.28
2023-05-05T02:45:22.719Z,94942.06
2023-05-05T02:47:49.363Z,94944.25
2023-05-05T02:50:16.060Z,94942.91
2023-05-05T02:52:43.052Z,94941.72
2023-05-05T02:55:10.468Z,94943.34
2023-05-05T02:57:44.604Z,94946.19
2023-05-05T03:00:19.230Z,94946.41
2023-05-05T03:02:53.708Z,94940.69
2023-05-05T03:05:23.491Z,94953.53
2023-05-05T03:07:55.880Z,94946.31
2023-05-05T03:10:29.021Z,94952.97
2023-05-05T03:12:59.767Z,94942.28
2023-05-05T03:15:31.271Z,94949.03
2023-05-05T03:17:59.275Z,94947.44
2023-05-05T03:20:26.692Z,94947.06
2023-05-05T03:22:54.778Z,94945.47
2023-05-05T03:25:21.538Z,94952.84
2023-05-05T03:27:48.334Z,94950.50
2023-05-05T03:30:16.459Z,94948.56
2023-05-05T03:32:43.123Z,94940.84
2023-05-05T03:35:09.868Z,94944.31
2023-05-05T03:37:36.457Z,94948.63
2023-05-05T03:40:03.862Z,94950.97
2023-05-05T03:42:30.561Z,94947.56
2023-05-05T03:44:57.334Z,94942.97
2023-05-05T03:47:25.341Z,94941.38
2023-05-05T03:49:52.472Z,94943.53
2023-05-05T03:52:19.078Z,94943.66
2023-05-05T03:54:46.124Z,94944.22
2023-05-05T03:57:12.807Z,94945.38
2023-05-05T03:59:39.393Z,94948.84
2023-05-05T04:02:06.028Z,94941.81
2023-05-05T04:04:34.075Z,94939.34
2023-05-05T04:07:00.874Z,94940.00
2023-05-05T04:09:27.524Z,94936.34
2023-05-05T04:11:54.100Z,94943.84
2023-05-05T04:14:20.767Z,94951.28
2023-05-05T04:16:47.359Z,94947.63
2023-05-05T04:19:14.073Z,94946.66
2023-05-05T04:21:42.381Z,94944.69
2023-05-05T04:24:09.545Z,94946.88
2023-05-05T04:26:36.460Z,94949.09
2023-05-05T04:29:03.211Z,94946.03
2023-05-05T04:31:30.658Z,94956.78
2023-05-05T04:33:57.305Z,94948.94
2023-05-05T04:36:23.915Z,94949.13
2023-05-05T04:38:51.910Z,94957.72
2023-05-05T04:41:18.548Z,94966.09
2023-05-05T04:43:45.558Z,94962.47
2023-05-05T04:46:12.152Z,94960.06
2023-05-05T04:48:38.865Z,94964.41
2023-05-05T04:51:05.837Z,94965.38
2023-05-05T04:53:32.570Z,94966.78
2023-05-05T04:56:02.592Z,94976.47
2023-05-05T04:58:29.331Z,94973.50
2023-05-05T05:00:55.973Z,94977.50
2023-05-05T05:03:22.806Z,94977.00
2023-05-05T05:05:49.700Z,94977.81
2023-05-05T05:08:17.072Z,94985.84
2023-05-05T05:10:43.885Z,94994.63
2023-05-05T05:13:12.948Z,94994.28
2023-05-05T05:15:39.764Z,94994.81
2023-05-05T05:18:06.645Z,94998.47
2023-05-05T05:20:33.362Z,94998.13
2023-05-05T05:23:02.129Z,94994.25
2023-05-05T05:25:29.050Z,95004.16
2023-05-05T05:30:30.134Z,94995.19
2023-05-05T05:32:56.782Z,94994.69
2023-05-05T05:35:23.452Z,94996.94
2023-05-05T05:37:51.729Z,94999.69
2023-05-05T05:40:18.664Z,94994.97
2023-05-05T05:42:45.272Z,94985.91
2023-05-05T05:45:11.958Z,94987.69
2023-05-05T05:47:40.053Z,94986.16
2023-05-05T05:50:07.921Z,94992.63
2023-05-05T05:52:36.103Z,94998.34
2023-05-05T05:55:02.781Z,95000.19
2023-05-05T05:57:29.373Z,94994.63
2023-05-05T05:59:56.503Z,94995.69
2023-05-05T06:02:23.455Z,95001.25
2023-05-05T06:04:51.594Z,94993.13
2023-05-05T06:07:18.399Z,94994.75
2023-05-05T06:09:45.321Z,94996.63
2023-05-05T06:12:11.925Z,94996.31
2023-05-05T06:14:38.583Z,94995.38
2023-05-05T06:17:05.302Z,94997.94
2023-05-05T06:19:31.971Z,95001.09
2023-05-05T06:22:00.020Z,95007.16
2023-05-05T06:24:26.639Z,95007.09
2023-05-05T06:26:53.198Z,95013.84
2023-05-05T06:29:19.879Z,95005.25
2023-05-05T06:31:47.017Z,95009.03
2023-05-05T06:34:13.721Z,95004.41
2023-05-05T06:36:40.432Z,95013.66
2023-05-05T06:39:08.499Z,95006.19
2023-05-05T06:41:35.178Z,95011.31
2023-05-05T06:44:02.196Z,95007.63
2023-05-05T06:46:29.061Z,95009.38
2023-05-05T06:48:55.713Z,95016.81
2023-05-05T06:51:22.773Z,95017.81
2023-05-05T06:53:49.420Z,95012.72
2023-05-05T06:56:17.422Z,95015.91
2023-05-05T06:58:44.020Z,95008.91
2023-05-05T07:01:10.654Z,95011.28
2023-05-05T07:03:37.316Z,95014.00
2023-05-05T07:06:04.166Z,95019.53
2023-05-05T07:08:30.854Z,95017.94
2023-05-05T07:10:57.495Z,95014.25
2023-05-05T07:13:25.505Z,95022.13
2023-05-05T07:15:52.160Z,95015.22
2023-05-05T07:18:20.337Z,95009.94
2023-05-05T07:20:47.297Z,95015.81
2023-05-05T07:23:13.946Z,95014.47
2023-05-05T07:25:40.609Z,95011.78
2023-05-05T07:28:07.276Z,95012.88
2023-05-05T07:30:35.241Z,95010.84
2023-05-05T07:33:01.859Z,95009.91
2023-05-05T07:35:28.641Z,95006.75
2023-05-05T07:37:55.190Z,95006.88
2023-05-05T07:40:21.977Z,95015.19
2023-05-05T07:42:48.580Z,95008.06
2023-05-05T07:45:15.224Z,95002.78
2023-05-05T07:47:43.156Z,94999.91
2023-05-05T07:50:10.676Z,95001.00
2023-05-05T07:52:44.948Z,94992.22
2023-05-05T07:55:14.909Z,94995.19
2023-05-05T07:57:41.569Z,94989.75
2023-05-05T08:00:09.657Z,94992.59
2023-05-05T08:02:36.610Z,94992.81
2023-05-05T08:05:05.338Z,94990.19
2023-05-05T08:07:32.128Z,94997.16
2023-05-05T08:09:58.903Z,94982.88
2023-05-05T08:12:25.544Z,94987.06
2023-05-05T08:14:52.146Z,94980.53
2023-05-05T08:17:18.750Z,94980.94
2023-05-05T08:19:45.362Z,94993.25
2023-05-05T08:22:14.077Z,94986.66
2023-05-05T08:24:40.696Z,94984.50
2023-05-05T08:27:07.321Z,94976.56
2023-05-05T08:29:33.934Z,94975.97
2023-05-05T08:32:00.681Z,94976.56
2023-05-05T08:34:27.327Z,94966.59
2023-05-05T08:36:54.002Z,94963.47
2023-05-05T08:39:22.131Z,94962.56
2023-05-05T08:41:49.038Z,94966.38
2023-05-05T08:44:15.752Z,94964.88
2023-05-05T08:46:43.034Z,94965.94
2023-05-05T08:49:15.114Z,94958.19
2023-05-05T08:51:44.276Z,94956.09
2023-05-05T08:54:17.655Z,94950.69
2023-05-05T08:56:47.043Z,94954.34
2023-05-05T08:59:14.578Z,94952.09
2023-05-05T09:01:42.821Z,94948.00
2023-05-05T09:04:10.899Z,94949.63
2023-05-05T09:06:37.950Z,94950.53
2023-05-05T09:09:04.527Z,94958.22
2023-05-05T09:11:32.512Z,94957.72
2023-05-05T09:14:01.737Z,94949.63
2023-05-05T09:16:28.470Z,94940.91
2023-05-05T09:19:01.961Z,94943.66
2023-05-05T09:21:29.260Z,94950.25
2023-05-05T09:24:09.086Z,94947.50
2023-05-05T09:26:37.781Z,94947.81
2023-05-05T09:29:06.113Z,94945.47
2023-05-05T09:31:33.982Z,94936.06
2023-05-05T09:34:01.174Z,94930.13
2023-05-05T09:36:47.995Z,94931.38
2023-05-05T09:39:16.778Z,94921.44
2023-05-05T09:41:44.275Z,94927.81
2023-05-05T09:44:12.988Z,94924.53
2023-05-05T09:46:51.053Z,94921.41
2023-05-05T09:49:19.128Z,94915.19
2023-05-05T09:51:46.064Z,94915.88
2023-05-05T09:54:23.220Z,94904.75
2023-05-05T09:56:50.894Z,94918.59
2023-05-05T09:59:19.739Z,94909.78
2023-05-05T10:01:46.661Z,94912.50
2023-05-05T10:04:24.060Z,94912.38
2023-05-05T10:06:50.842Z,94914.78
2023-05-05T10:09:17.471Z,94902.34
2023-05-05T10:11:46.420Z,94913.66
2023-05-05T10:14:15.699Z,94901.06
2023-05-05T10:16:46.828Z,94896.81
2023-05-05T10:19:15.175Z,94902.34
2023-05-05T10:21:46.432Z,94895.09
2023-05-05T10:24:17.737Z,94902.00
2023-05-05T10:26:46.295Z,94899.00
2023-05-05T10:29:21.437Z,94891.91
2023-05-05T10:31:52.822Z,94890.22
2023-05-05T10:34:27.152Z,94886.78
2023-05-05T10:36:55.146Z,94891.25
2023-05-05T10:39:23.782Z,94881.94
2023-05-05T10:41:52.100Z,94880.53
2023-05-05T10:44:19.747Z,94877.47
2023-05-05T10:46:47.094Z,94878.91
2023-05-05T10:49:24.167Z,94874.31
2023-05-05T10:52:00.221Z,94857.13
2023-05-05T10:54:36.345Z,94861.44
2023-05-05T10:57:06.988Z,94853.44
2023-05-05T10:59:40.966Z,94853.91
2023-05-05T11:02:24.311Z,94849.44
2023-05-05T11:05:22.852Z,94850.09
2023-05-05T11:07:50.453Z,94842.75
2023-05-05T11:10:20.535Z,94827.19
2023-05-05T11:13:19.493Z,94834.03
2023-05-05T11:15:46.519Z,94833.13
2023-05-05T11:18:33.969Z,94815.31
2023-05-05T11:21:15.995Z,94807.00
2023-05-05T11:23:47.635Z,94818.88
2023-05-05T11:26:15.389Z,94814.63
2023-05-05T11:29:04.680Z,94814.41
2023-05-05T11:31:31.917Z,94806.47
2023-05-05T11:34:34.953Z,94807.88
2023-05-05T11:37:07.623Z,94808.22
2023-05-05T11:39:49.774Z,94794.88
2023-05-05T11:42:25.584Z,94793.25
2023-05-05T11:44:53.195Z,94795.97
2023-05-05T11:47:40.939Z,94795.81
2023-05-05T11:50:19.277Z,94798.13
2023-05-05T11:52:47.518Z,94791.66
2023-05-05T11:55:20.936Z,94792.00
2023-05-05T11:57:47.586Z,94786.56
2023-05-05T12:00:15.269Z,94784.53
2023-05-05T12:02:42.094Z,94793.97
2023-05-05T12:05:09.060Z,94790.84
2023-05-05T12:07:35.750Z,94779.03
2023-05-05T12:10:04.237Z,94782.47
2023-05-05T12:12:36.083Z,94775.91
2023-05-05T12:15:03.664Z,94784.16
2023-05-05T12:17:38.780Z,94783.22
2023-05-05T12:20:06.650Z,94778.78
2023-05-05T12:22:33.557Z,94776.84
2023-05-05T12:25:04.092Z,94777.38
2023-05-05T12:27:31.297Z,94777.16
2023-05-05T12:30:11.597Z,94773.81
2023-05-05T12:32:38.429Z,94759.25
2023-05-05T12:35:07.770Z,94758.75
2023-05-05T12:37:34.399Z,94768.19
2023-05-05T12:40:01.137Z,94762.22
2023-05-05T12:42:29.427Z,94763.38
2023-05-05T12:44:56.714Z,94753.69
2023-05-05T12:47:34.988Z,94752.31
2023-05-05T12:50:03.238Z,94749.88
2023-05-05T12:52:42.364Z,94747.63
2023-05-05T12:55:10.264Z,94743.63
2023-05-05T12:57:38.699Z,94737.91
2023-05-05T13:00:16.193Z,94738.50
2023-05-05T13:02:42.949Z,94736.91
2023-05-05T13:05:10.613Z,94728.81
2023-05-05T13:07:49.810Z,94728.34
2023-05-05T13:10:16.402Z,94723.69
2023-05-05T13:12:44.395Z,94723.03
2023-05-05T13:15:12.174Z,94714.81
2023-05-05T13:17:39.053Z,94709.94
2023-05-05T13:20:07.729Z,94704.47
2023-05-05T13:22:34.314Z,94700.81
2023-05-05T13:25:00.893Z,94691.69
2023-05-05T13:27:27.654Z,94687.00
2023-05-05T13:29:55.834Z,94689.53
2023-05-05T13:32:22.519Z,94693.00
2023-05-05T13:34:49.102Z,94679.06
2023-05-05T13:37:15.717Z,94672.41
2023-05-05T13:39:42.652Z,94669.06
2023-05-05T13:42:09.732Z,94668.25
2023-05-05T13:44:36.358Z,94662.88
2023-05-05T13:47:04.583Z,94666.69
2023-05-05T13:49:31.222Z,94651.91
2023-05-05T13:51:58.460Z,94650.06
2023-05-05T13:54:25.078Z,94640.63
2023-05-05T13:56:51.817Z,94637.50
2023-05-05T13:59:18.455Z,94631.75
2023-05-05T14:01:45.086Z,94624.41
2023-05-05T14:04:13.089Z,94631.31
2023-05-05T14:06:39.716Z,94623.63
2023-05-05T14:09:07.911Z,94618.75
2023-05-05T14:11:34.623Z,94616.00
2023-05-05T14:14:01.416Z,94613.84
2023-05-05T14:16:28.085Z,94607.94
2023-05-05T14:18:54.807Z,94609.41
2023-05-05T14:21:22.736Z,94612.41
2023-05-05T14:23:49.455Z,94604.84
2023-05-05T14:26:16.157Z,94604.44
2023-05-05T14:28:43.558Z,94595.56
2023-05-05T14:31:11.142Z,94599.03
2023-05-05T14:33:37.812Z,94594.56
2023-05-05T14:36:04.998Z,94599.84
2023-05-05T14:38:33.063Z,94599.53
2023-05-05T14:40:59.697Z,94592.75
2023-05-05T14:43:26.299Z,94591.34
2023-05-05T14:45:53.183Z,94588.28
2023-05-05T14:48:22.174Z,94597.03
2023-05-05T14:50:49.813Z,94586.47
2023-05-05T14:53:16.795Z,94587.19
2023-05-05T14:55:44.822Z,94583.72
2023-05-05T14:58:11.413Z,94587.09
2023-05-05T15:00:38.130Z,94585.97
2023-05-05T15:03:04.821Z,94586.97
2023-05-05T15:05:31.462Z,94586.19
2023-05-05T15:07:57.997Z,94580.16
2023-05-05T15:10:24.988Z,94591.41
2023-05-05T15:12:53.179Z,94583.03
2023-05-05T15:15:19.916Z,94590.44
2023-05-05T15:17:46.563Z,94595.34
2023-05-05T15:20:13.301Z,94586.91
2023-05-05T15:22:40.100Z,94587.19
2023-05-05T15:25:10.979Z,94580.97
2023-05-05T15:27:38.081Z,94580.19
2023-05-05T15:30:07.552Z,94578.09
2023-05-05T15:32:34.518Z,94572.19
2023-05-05T15:35:01.267Z,94572.50
2023-05-05T15:37:28.955Z,94563.53
2023-05-05T15:39:55.830Z,94557.25
2023-05-05T15:42:22.612Z,94557.59
2023-05-05T15:44:49.229Z,94553.78
2023-05-05T15:47:17.399Z,94556.47
2023-05-05T15:49:44.191Z,94557.44
2023-05-05T15:52:11.569Z,94551.69
2023-05-05T15:57:04.582Z,94560.28
2023-05-05T15:59:31.224Z,94553.75
2023-05-05T16:01:57.842Z,94559.22
2023-05-05T16:04:25.904Z,94560.41
2023-05-05T16:06:52.915Z,94558.13
2023-05-05T16:09:19.536Z,94557.94
2023-05-05T16:11:46.387Z,94566.16
2023-05-05T16:14:13.078Z,94565.00
2023-05-05T16:16:39.871Z,94557.19
2023-05-05T16:19:06.516Z,94555.88
2023-05-05T16:21:34.506Z,94553.22
2023-05-05T16:24:01.331Z,94550.53
2023-05-05T16:26:28.094Z,94546.75
2023-05-05T16:28:54.686Z,94546.72
2023-05-05T16:31:21.297Z,94541.53
2023-05-05T16:33:47.963Z,94533.25
2023-05-05T16:36:14.732Z,94532.75
2023-05-05T16:38:44.031Z,94541.25
2023-05-05T16:41:10.619Z,94537.69
2023-05-05T16:43:37.412Z,94556.81
2023-05-05T16:46:04.431Z,94541.06
2023-05-05T16:48:31.071Z,94551.00
2023-05-05T16:50:57.888Z,94551.81
2023-05-05T16:53:24.659Z,94547.34
2023-05-05T16:55:53.375Z,94555.41
2023-05-05T16:58:20.466Z,94554.91
2023-05-05T17:00:48.982Z,94553.81
2023-05-05T17:03:16.522Z,94545.88
2023-05-05T17:05:43.687Z,94550.03
2023-05-05T17:08:14.347Z,94552.53
2023-05-05T17:10:41.436Z,94551.13
2023-05-05T17:13:10.827Z,94553.94
2023-05-05T17:15:37.794Z,94547.75
2023-05-05T17:18:05.806Z,94544.06
2023-05-05T17:20:33.465Z,94534.00
2023-05-05T17:23:01.998Z,94544.16
2023-05-05T17:25:28.698Z,94542.47
2023-05-05T17:27:56.107Z,94545.19
2023-05-05T17:30:24.424Z,94544.16
2023-05-05T17:32:51.120Z,94529.91
2023-05-05T17:35:18.201Z,94533.41
2023-05-05T17:37:45.035Z,94525.34
2023-05-05T17:40:11.935Z,94511.81
2023-05-05T17:42:38.947Z,94509.00
2023-05-05T17:45:06.622Z,94508.22
2023-05-05T17:47:35.031Z,94500.94
2023-05-05T17:50:01.999Z,94500.94
2023-05-05T17:52:28.640Z,94495.06
2023-05-05T17:54:55.439Z,94494.56
2023-05-05T17:57:22.804Z,94487.28
2023-05-05T17:59:50.101Z,94496.75
2023-05-05T18:02:17.031Z,94496.75
2023-05-05T18:04:45.084Z,94490.09
2023-05-05T18:07:12.294Z,94488.50
2023-05-05T18:09:39.023Z,94497.19
2023-05-05T18:12:06.927Z,94510.03
2023-05-05T18:14:33.840Z,94525.34
2023-05-05T18:17:01.285Z,94525.66
2023-05-05T18:19:27.911Z,94525.88
2023-05-05T18:21:56.039Z,94543.00
2023-05-05T18:24:22.761Z,94566.09
2023-05-05T18:26:50.531Z,94574.97
2023-05-05T18:29:17.670Z,94586.81
2023-05-05T18:31:45.435Z,94597.38
2023-05-05T18:34:12.496Z,94593.88
2023-05-05T18:36:39.172Z,94598.16
2023-05-05T18:39:07.164Z,94590.50
2023-05-05T18:41:34.108Z,94599.06
2023-05-05T18:44:00.766Z,94609.03
2023-05-05T18:46:27.892Z,94642.09
2023-05-05T18:48:54.620Z,94759.31
2023-05-05T18:51:21.359Z,94885.16
2023-05-05T18:53:48.041Z,94900.81
2023-05-05T18:56:16.066Z,94832.50
2023-05-05T18:58:42.846Z,94881.34
2023-05-05T19:01:09.680Z,94883.94
2023-05-05T19:03:36.727Z,94909.09
2023-05-05T19:06:05.682Z,94902.66
2023-05-05T19:08:32.421Z,94942.09
2023-05-05T19:10:59.033Z,94939.09
2023-05-05T19:13:26.982Z,94930.28
2023-05-05T19:15:54.933Z,94942.91
2023-05-05T19:18:21.558Z,94955.84
2023-05-05T19:20:48.198Z,94959.09
2023-05-05T19:23:14.821Z,94968.34
2023-05-05T19:25:41.860Z,94987.91
2023-05-05T19:28:10.876Z,94995.25
2023-05-05T19:30:39.158Z,95002.56
2023-05-05T19:33:05.927Z,94992.22
2023-05-05T19:35:32.710Z,95001.00
2023-05-05T19:37:59.900Z,94995.28
2023-05-05T19:40:26.658Z,94996.53
2023-05-05T19:42:53.559Z,94993.84
2023-05-05T19:45:21.095Z,94997.16
2023-05-05T19:47:49.287Z,95006.31
2023-05-05T19:50:16.101Z,94994.81
2023-05-05T19:52:42.844Z,94988.56
2023-05-05T19:55:13.255Z,94999.06
2023-05-05T19:57:40.365Z,94977.66
2023-05-05T20:00:08.455Z,94975.94
2023-05-05T20:02:37.001Z,94960.28
2023-05-05T20:05:06.563Z,94944.34
2023-05-05T20:07:33.095Z,94947.00
2023-05-05T20:10:00.706Z,94934.91
2023-05-05T20:12:27.383Z,94922.53
2023-05-05T20:14:54.037Z,94921.09
2023-05-05T20:17:21.349Z,94915.91
2023-05-05T20:19:48.174Z,94922.56
2023-05-05T20:22:17.729Z,94940.19
2023-05-05T20:24:44.365Z,94944.63
2023-05-05T20:27:11.140Z,94950.31
2023-05-05T20:29:37.849Z,94947.94
2023-05-05T20:32:05.793Z,94939.88
2023-05-05T20:34:32.605Z,94942.00
2023-05-05T20:36:59.342Z,94935.31
2023-05-05T20:39:27.389Z,94937.75
2023-05-05T20:41:54.188Z,94933.75
2023-05-05T20:44:20.848Z,94936.72
2023-05-05T20:46:47.721Z,94935.13
2023-05-05T20:49:14.369Z,94927.53
2023-05-05T20:51:41.040Z,94922.22
2023-05-05T20:54:07.697Z,94931.63
2023-05-05T20:56:35.697Z,94929.19
2023-05-05T20:59:03.983Z,94926.31
2023-05-05T21:01:30.797Z,94928.91
2023-05-05T21:03:57.537Z,94928.91
2023-05-05T21:06:24.328Z,94923.63
2023-05-05T21:08:50.891Z,94928.34
2023-05-05T21:11:17.482Z,94923.69
2023-05-05T21:13:45.401Z,94921.56
2023-05-05T21:16:12.083Z,94915.34
2023-05-05T21:18:38.661Z,94920.81
2023-05-05T21:21:05.253Z,94920.19
2023-05-05T21:23:31.896Z,94909.22
2023-05-05T21:25:58.972Z,94927.50
2023-05-05T21:28:25.662Z,94932.03
2023-05-05T21:33:23.160Z,94936.75
2023-05-05T21:35:49.736Z,94927.00
2023-05-05T21:38:16.646Z,94921.75
2023-05-05T21:40:43.251Z,94923.03
2023-05-05T21:43:09.826Z,94919.97
2023-05-05T21:45:36.394Z,94923.56
2023-05-05T21:48:04.590Z,94916.75
2023-05-05T21:50:31.206Z,94914.06
2023-05-05T21:52:58.015Z,94920.72
2023-05-05T21:55:24.747Z,94911.34
2023-05-05T21:57:51.352Z,94910.22
2023-05-05T22:00:18.176Z,94899.50
2023-05-05T22:02:45.348Z,94903.78
2023-05-05T22:05:13.450Z,94900.56
2023-05-05T22:07:40.714Z,94907.53
2023-05-05T22:10:08.504Z,94910.34
2023-05-05T22:12:35.308Z,94919.88
2023-05-05T22:15:01.974Z,94908.50
2023-05-05T22:17:28.605Z,94908.25
2023-05-05T22:19:55.367Z,94910.16
2023-05-05T22:22:23.292Z,94913.69
2023-05-05T22:24:50.009Z,94911.03
2023-05-05T22:27:16.619Z,94920.09
2023-05-05T22:29:43.236Z,94913.59
2023-05-05T22:32:09.852Z,94918.44
2023-05-05T22:34:36.509Z,94917.13
2023-05-05T22:37:03.197Z,94910.16
2023-05-05T22:39:31.223Z,94905.31
2023-05-05T22:41:58.049Z,94911.47
2023-05-05T22:44:24.681Z,94909.22
2023-05-05T22:46:51.281Z,94907.59
2023-05-05T22:49:18.007Z,94903.94
2023-05-05T22:51:44.884Z,94903.88
2023-05-05T22:54:11.563Z,94907.16
2023-05-05T22:56:39.493Z,94897.56
2023-05-05T22:59:06.112Z,94891.28
2023-05-05T23:01:33.322Z,94893.16
2023-05-05T23:04:00.021Z,94886.44
2023-05-05T23:06:27.801Z,94882.06
2023-05-05T23:08:54.425Z,94889.44
2023-05-05T23:11:21.059Z,94876.25
2023-05-05T23:13:49.026Z,94872.84
2023-05-05T23:16:15.745Z,94875.78
2023-05-05T23:18:42.498Z,94872.59
2023-05-05T23:21:09.877Z,94868.06
2023-05-05T23:23:36.490Z,94864.03
2023-05-05T23:26:03.100Z,94860.81
2023-05-05T23:28:29.690Z,94861.91
2023-05-05T23:30:57.723Z,94858.47
2023-05-05T23:33:24.540Z,94865.31
2023-05-05T23:35:51.274Z,94861.34
2023-05-05T23:38:17.956Z,94861.06
2023-05-05T23:40:44.568Z,94862.66
2023-05-05T23:43:12.051Z,94857.81
2023-05-05T23:45:38.677Z,94863.75
2023-05-05T23:48:06.830Z,94859.47
2023-05-05T23:50:33.523Z,94859.06
2023-05-05T23:53:00.160Z,94860.88
2023-05-05T23:55:26.782Z,94857.06
2023-05-05T23:57:53.440Z,94847.69
